デンバー の空港の天気 - METARとTAF

デンバー国際空港 ( KDEN / DEN ) - アメリカ コロラド州デンバー
飛行場実況気象(Metar)
観測時間09/22 16:53 MDT (09/22 22:53 UTC)
風向・風速東 5m/s
視程10km以上
天気現象
なし
気温29.4℃
湿度6%
気圧1011.3hPa
METARKDEN 222253Z 08009KT 10SM CLR 29/M12 A3008 RMK AO2 SLP113 T02941117
過去の天気等 Google飛行場航空写真 Wunderground天気予報

過去48時間のMETAR

飛行場予報(TAF)
発表時間: 9/22 17:30 MDT (9/22 23:30 UTC)
予報対象時間: 22日18時 MDT ~ 24日0時 MDT
風向・風速東 4m/s
視程10km以上
なし
22日20時 MDT から
風向・風速南東 4m/s
視程10km以上
なし
22日22時 MDT から
風向・風速南 4m/s
視程10km以上
なし
23日0時 MDT から
風向・風速南南西 5m/s
視程10km以上
なし
23日14時 MDT から
風向・風速南東 4m/s
視程10km以上
少しの雲 雲底高度 7620m
KDEN 222330Z 2300/2406 10008KT P6SM SKC
FM230200 13008KT P6SM SKC
FM230400 17008KT P6SM SKC
FM230600 21010KT P6SM SKC
FM232000 14008KT P6SM FEW250